sensor_id;sensor_type;location;lat;lon;timestamp;P1;durP1;ratioP1;P2;durP2;ratioP2
73271;SDS011;61497;51.088;5.886;2023-02-11T00:01:44;44.53;;;25.07;;
73271;SDS011;61497;51.088;5.886;2023-02-11T00:04:09;44.27;;;24.80;;
73271;SDS011;61497;51.088;5.886;2023-02-11T00:06:35;42.20;;;24.23;;
73271;SDS011;61497;51.088;5.886;2023-02-11T00:09:00;45.50;;;25.15;;
73271;SDS011;61497;51.088;5.886;2023-02-11T00:11:26;46.07;;;23.90;;
73271;SDS011;61497;51.088;5.886;2023-02-11T00:13:54;44.43;;;23.90;;
73271;SDS011;61497;51.088;5.886;2023-02-11T00:16:20;45.50;;;24.40;;
73271;SDS011;61497;51.088;5.886;2023-02-11T00:18:45;44.50;;;23.97;;
73271;SDS011;61497;51.088;5.886;2023-02-11T00:21:11;47.93;;;25.50;;
73271;SDS011;61497;51.088;5.886;2023-02-11T00:23:37;45.63;;;25.38;;
73271;SDS011;61497;51.088;5.886;2023-02-11T00:26:03;43.00;;;24.03;;
73271;SDS011;61497;51.088;5.886;2023-02-11T00:28:28;43.60;;;24.95;;
73271;SDS011;61497;51.088;5.886;2023-02-11T00:30:54;44.30;;;26.40;;
73271;SDS011;61497;51.088;5.886;2023-02-11T00:33:20;40.47;;;23.55;;
73271;SDS011;61497;51.088;5.886;2023-02-11T00:35:45;44.30;;;24.40;;
73271;SDS011;61497;51.088;5.886;2023-02-11T00:38:10;44.23;;;24.17;;
73271;SDS011;61497;51.088;5.886;2023-02-11T00:40:35;43.05;;;24.25;;
73271;SDS011;61497;51.088;5.886;2023-02-11T00:43:00;44.00;;;24.90;;
73271;SDS011;61497;51.088;5.886;2023-02-11T00:45:26;40.27;;;23.57;;
73271;SDS011;61497;51.088;5.886;2023-02-11T00:47:51;44.33;;;24.03;;
73271;SDS011;61497;51.088;5.886;2023-02-11T00:50:16;45.13;;;24.10;;
73271;SDS011;61497;51.088;5.886;2023-02-11T00:52:42;42.60;;;24.67;;
73271;SDS011;61497;51.088;5.886;2023-02-11T00:55:07;42.33;;;23.83;;
73271;SDS011;61497;51.088;5.886;2023-02-11T00:57:32;44.70;;;24.27;;
73271;SDS011;61497;51.088;5.886;2023-02-11T00:59:57;41.80;;;23.83;;
73271;SDS011;61497;51.088;5.886;2023-02-11T01:02:23;43.87;;;24.03;;
73271;SDS011;61497;51.088;5.886;2023-02-11T01:04:48;41.73;;;22.57;;
73271;SDS011;61497;51.088;5.886;2023-02-11T01:07:13;45.30;;;24.03;;
73271;SDS011;61497;51.088;5.886;2023-02-11T01:09:38;42.63;;;24.33;;
73271;SDS011;61497;51.088;5.886;2023-02-11T01:12:03;44.97;;;24.40;;
73271;SDS011;61497;51.088;5.886;2023-02-11T01:14:29;43.40;;;25.07;;
73271;SDS011;61497;51.088;5.886;2023-02-11T01:16:54;46.90;;;24.33;;
73271;SDS011;61497;51.088;5.886;2023-02-11T01:19:19;44.23;;;24.20;;
73271;SDS011;61497;51.088;5.886;2023-02-11T01:21:44;45.90;;;24.37;;
73271;SDS011;61497;51.088;5.886;2023-02-11T01:24:09;45.87;;;25.43;;
73271;SDS011;61497;51.088;5.886;2023-02-11T01:26:35;45.80;;;23.70;;
73271;SDS011;61497;51.088;5.886;2023-02-11T01:29:00;46.50;;;24.47;;
73271;SDS011;61497;51.088;5.886;2023-02-11T01:31:25;45.47;;;24.60;;
73271;SDS011;61497;51.088;5.886;2023-02-11T01:33:50;43.10;;;24.63;;
73271;SDS011;61497;51.088;5.886;2023-02-11T01:36:16;46.93;;;24.40;;
73271;SDS011;61497;51.088;5.886;2023-02-11T01:38:41;45.13;;;24.43;;
73271;SDS011;61497;51.088;5.886;2023-02-11T01:41:08;44.13;;;23.80;;
73271;SDS011;61497;51.088;5.886;2023-02-11T01:43:39;45.83;;;24.42;;
73271;SDS011;61497;51.088;5.886;2023-02-11T01:48:49;38.40;;;21.95;;
73271;SDS011;61497;51.088;5.886;2023-02-11T01:51:25;46.87;;;24.67;;
73271;SDS011;61497;51.088;5.886;2023-02-11T01:53:50;44.42;;;23.90;;
73271;SDS011;61497;51.088;5.886;2023-02-11T01:56:36;46.45;;;23.00;;
73271;SDS011;61497;51.088;5.886;2023-02-11T01:59:23;45.38;;;23.77;;
73271;SDS011;61497;51.088;5.886;2023-02-11T02:01:52;45.92;;;23.25;;
73271;SDS011;61497;51.088;5.886;2023-02-11T02:04:20;40.67;;;21.33;;
73271;SDS011;61497;51.088;5.886;2023-02-11T02:06:51;41.20;;;21.27;;
73271;SDS011;61497;51.088;5.886;2023-02-11T02:09:23;47.03;;;23.52;;
73271;SDS011;61497;51.088;5.886;2023-02-11T02:11:50;43.75;;;22.30;;
73271;SDS011;61497;51.088;5.886;2023-02-11T02:14:15;41.83;;;19.90;;
73271;SDS011;61497;51.088;5.886;2023-02-11T02:16:40;39.77;;;21.57;;
73271;SDS011;61497;51.088;5.886;2023-02-11T02:19:23;43.30;;;21.77;;
73271;SDS011;61497;51.088;5.886;2023-02-11T02:26:52;39.63;;;21.58;;
73271;SDS011;61497;51.088;5.886;2023-02-11T02:34:52;42.38;;;21.05;;
73271;SDS011;61497;51.088;5.886;2023-02-11T02:37:21;41.63;;;21.77;;
73271;SDS011;61497;51.088;5.886;2023-02-11T02:39:51;33.83;;;18.83;;
73271;SDS011;61497;51.088;5.886;2023-02-11T02:42:16;34.90;;;19.40;;
73271;SDS011;61497;51.088;5.886;2023-02-11T02:44:46;35.73;;;19.20;;
73271;SDS011;61497;51.088;5.886;2023-02-11T02:47:12;34.97;;;18.95;;
73271;SDS011;61497;51.088;5.886;2023-02-11T02:49:37;33.07;;;18.90;;
73271;SDS011;61497;51.088;5.886;2023-02-11T02:57:31;35.00;;;18.52;;
73271;SDS011;61497;51.088;5.886;2023-02-11T03:02:34;36.00;;;18.60;;
73271;SDS011;61497;51.088;5.886;2023-02-11T03:07:36;33.90;;;18.55;;
73271;SDS011;61497;51.088;5.886;2023-02-11T03:10:07;34.78;;;18.55;;
73271;SDS011;61497;51.088;5.886;2023-02-11T03:12:33;37.28;;;19.23;;
73271;SDS011;61497;51.088;5.886;2023-02-11T03:14:58;35.73;;;18.50;;
73271;SDS011;61497;51.088;5.886;2023-02-11T03:17:25;34.25;;;18.70;;
73271;SDS011;61497;51.088;5.886;2023-02-11T03:19:51;32.65;;;17.48;;
73271;SDS011;61497;51.088;5.886;2023-02-11T03:22:29;34.90;;;17.42;;
73271;SDS011;61497;51.088;5.886;2023-02-11T03:24:56;34.53;;;16.60;;
73271;SDS011;61497;51.088;5.886;2023-02-11T03:27:26;31.33;;;17.50;;
73271;SDS011;61497;51.088;5.886;2023-02-11T03:32:24;34.05;;;16.75;;
73271;SDS011;61497;51.088;5.886;2023-02-11T03:34:58;31.30;;;15.93;;
73271;SDS011;61497;51.088;5.886;2023-02-11T03:40:02;33.27;;;15.27;;
73271;SDS011;61497;51.088;5.886;2023-02-11T03:42:31;28.10;;;15.60;;
73271;SDS011;61497;51.088;5.886;2023-02-11T03:44:59;26.95;;;15.30;;
73271;SDS011;61497;51.088;5.886;2023-02-11T03:47:25;25.80;;;14.98;;
73271;SDS011;61497;51.088;5.886;2023-02-11T03:49:52;29.80;;;15.98;;
73271;SDS011;61497;51.088;5.886;2023-02-11T03:52:19;29.40;;;15.70;;
73271;SDS011;61497;51.088;5.886;2023-02-11T03:54:45;32.08;;;15.50;;
73271;SDS011;61497;51.088;5.886;2023-02-11T03:57:12;27.42;;;14.77;;
73271;SDS011;61497;51.088;5.886;2023-02-11T04:02:15;30.08;;;15.23;;
73271;SDS011;61497;51.088;5.886;2023-02-11T04:04:40;29.87;;;15.37;;
73271;SDS011;61497;51.088;5.886;2023-02-11T04:07:06;30.63;;;16.13;;
73271;SDS011;61497;51.088;5.886;2023-02-11T04:09:31;33.80;;;16.17;;
73271;SDS011;61497;51.088;5.886;2023-02-11T04:11:57;28.03;;;15.83;;
73271;SDS011;61497;51.088;5.886;2023-02-11T04:14:22;30.90;;;16.77;;
73271;SDS011;61497;51.088;5.886;2023-02-11T04:16:47;31.27;;;14.97;;
73271;SDS011;61497;51.088;5.886;2023-02-11T04:19:12;30.60;;;16.03;;
73271;SDS011;61497;51.088;5.886;2023-02-11T04:21:37;28.87;;;15.17;;
73271;SDS011;61497;51.088;5.886;2023-02-11T04:24:03;29.40;;;15.87;;
73271;SDS011;61497;51.088;5.886;2023-02-11T04:26:28;29.47;;;15.77;;
73271;SDS011;61497;51.088;5.886;2023-02-11T04:28:53;28.97;;;15.57;;
73271;SDS011;61497;51.088;5.886;2023-02-11T04:31:18;29.17;;;15.70;;
73271;SDS011;61497;51.088;5.886;2023-02-11T04:33:43;27.73;;;14.50;;
73271;SDS011;61497;51.088;5.886;2023-02-11T04:36:08;28.93;;;14.50;;
73271;SDS011;61497;51.088;5.886;2023-02-11T04:38:34;29.67;;;15.17;;
73271;SDS011;61497;51.088;5.886;2023-02-11T04:40:59;29.47;;;15.13;;
73271;SDS011;61497;51.088;5.886;2023-02-11T04:43:24;30.50;;;15.83;;
73271;SDS011;61497;51.088;5.886;2023-02-11T04:45:49;30.47;;;13.97;;
73271;SDS011;61497;51.088;5.886;2023-02-11T04:48:14;32.33;;;14.50;;
73271;SDS011;61497;51.088;5.886;2023-02-11T04:50:40;29.67;;;13.93;;
73271;SDS011;61497;51.088;5.886;2023-02-11T04:53:05;28.17;;;15.23;;
73271;SDS011;61497;51.088;5.886;2023-02-11T04:55:30;29.40;;;15.37;;
73271;SDS011;61497;51.088;5.886;2023-02-11T04:57:55;30.33;;;15.63;;
73271;SDS011;61497;51.088;5.886;2023-02-11T05:00:20;34.13;;;15.13;;
73271;SDS011;61497;51.088;5.886;2023-02-11T05:02:46;30.37;;;14.43;;
73271;SDS011;61497;51.088;5.886;2023-02-11T05:05:11;33.60;;;14.30;;
73271;SDS011;61497;51.088;5.886;2023-02-11T05:07:36;30.60;;;13.73;;
73271;SDS011;61497;51.088;5.886;2023-02-11T05:10:02;29.13;;;14.60;;
73271;SDS011;61497;51.088;5.886;2023-02-11T05:12:27;28.85;;;14.23;;
73271;SDS011;61497;51.088;5.886;2023-02-11T05:14:52;37.40;;;15.77;;
73271;SDS011;61497;51.088;5.886;2023-02-11T05:17:17;30.73;;;14.23;;
73271;SDS011;61497;51.088;5.886;2023-02-11T05:19:42;33.23;;;15.47;;
73271;SDS011;61497;51.088;5.886;2023-02-11T05:22:08;28.40;;;15.37;;
73271;SDS011;61497;51.088;5.886;2023-02-11T05:24:33;28.27;;;14.63;;
73271;SDS011;61497;51.088;5.886;2023-02-11T05:26:58;30.07;;;15.23;;
73271;SDS011;61497;51.088;5.886;2023-02-11T05:29:24;34.17;;;14.73;;
73271;SDS011;61497;51.088;5.886;2023-02-11T05:31:49;35.37;;;15.97;;
73271;SDS011;61497;51.088;5.886;2023-02-11T05:34:14;32.17;;;15.13;;
73271;SDS011;61497;51.088;5.886;2023-02-11T05:36:39;34.40;;;15.90;;
73271;SDS011;61497;51.088;5.886;2023-02-11T05:39:04;32.67;;;15.70;;
73271;SDS011;61497;51.088;5.886;2023-02-11T05:41:29;33.83;;;15.07;;
73271;SDS011;61497;51.088;5.886;2023-02-11T05:43:55;38.67;;;16.57;;
73271;SDS011;61497;51.088;5.886;2023-02-11T05:46:20;31.90;;;14.87;;
73271;SDS011;61497;51.088;5.886;2023-02-11T05:48:45;39.67;;;16.27;;
73271;SDS011;61497;51.088;5.886;2023-02-11T05:51:10;35.27;;;16.90;;
73271;SDS011;61497;51.088;5.886;2023-02-11T05:53:35;35.97;;;17.67;;
73271;SDS011;61497;51.088;5.886;2023-02-11T05:56:01;31.47;;;16.13;;
73271;SDS011;61497;51.088;5.886;2023-02-11T05:58:26;37.70;;;17.03;;
73271;SDS011;61497;51.088;5.886;2023-02-11T06:00:51;38.97;;;17.00;;
73271;SDS011;61497;51.088;5.886;2023-02-11T06:03:16;32.78;;;15.85;;
73271;SDS011;61497;51.088;5.886;2023-02-11T06:05:42;32.73;;;15.57;;
73271;SDS011;61497;51.088;5.886;2023-02-11T06:08:08;35.33;;;17.20;;
73271;SDS011;61497;51.088;5.886;2023-02-11T06:10:33;33.57;;;17.10;;
73271;SDS011;61497;51.088;5.886;2023-02-11T06:12:58;38.13;;;18.03;;
73271;SDS011;61497;51.088;5.886;2023-02-11T06:15:23;32.27;;;16.33;;
73271;SDS011;61497;51.088;5.886;2023-02-11T06:17:48;38.40;;;16.77;;
73271;SDS011;61497;51.088;5.886;2023-02-11T06:20:13;36.37;;;16.87;;
73271;SDS011;61497;51.088;5.886;2023-02-11T06:22:39;41.58;;;17.25;;
73271;SDS011;61497;51.088;5.886;2023-02-11T06:25:04;39.77;;;17.73;;
73271;SDS011;61497;51.088;5.886;2023-02-11T06:27:30;36.80;;;17.43;;
73271;SDS011;61497;51.088;5.886;2023-02-11T06:29:55;42.73;;;18.50;;
73271;SDS011;61497;51.088;5.886;2023-02-11T06:32:20;47.27;;;19.20;;
73271;SDS011;61497;51.088;5.886;2023-02-11T06:34:45;41.73;;;18.50;;
73271;SDS011;61497;51.088;5.886;2023-02-11T06:37:11;42.47;;;18.43;;
73271;SDS011;61497;51.088;5.886;2023-02-11T06:39:36;46.53;;;18.37;;
73271;SDS011;61497;51.088;5.886;2023-02-11T06:42:01;41.43;;;19.20;;
73271;SDS011;61497;51.088;5.886;2023-02-11T06:44:27;35.87;;;18.90;;
73271;SDS011;61497;51.088;5.886;2023-02-11T06:46:52;46.53;;;19.43;;
73271;SDS011;61497;51.088;5.886;2023-02-11T06:49:17;42.00;;;18.27;;
73271;SDS011;61497;51.088;5.886;2023-02-11T06:51:42;46.00;;;20.03;;
73271;SDS011;61497;51.088;5.886;2023-02-11T06:54:07;49.93;;;20.23;;
73271;SDS011;61497;51.088;5.886;2023-02-11T06:56:33;45.03;;;19.97;;
73271;SDS011;61497;51.088;5.886;2023-02-11T06:58:58;43.05;;;19.20;;
73271;SDS011;61497;51.088;5.886;2023-02-11T07:01:24;44.80;;;18.00;;
73271;SDS011;61497;51.088;5.886;2023-02-11T07:03:50;41.60;;;19.48;;
73271;SDS011;61497;51.088;5.886;2023-02-11T07:06:19;45.37;;;19.53;;
73271;SDS011;61497;51.088;5.886;2023-02-11T07:08:45;52.03;;;20.23;;
73271;SDS011;61497;51.088;5.886;2023-02-11T07:11:14;41.17;;;20.13;;
73271;SDS011;61497;51.088;5.886;2023-02-11T07:13:40;47.20;;;18.70;;
73271;SDS011;61497;51.088;5.886;2023-02-11T07:16:06;46.47;;;19.13;;
73271;SDS011;61497;51.088;5.886;2023-02-11T07:18:31;49.05;;;21.23;;
73271;SDS011;61497;51.088;5.886;2023-02-11T07:20:56;48.60;;;19.73;;
73271;SDS011;61497;51.088;5.886;2023-02-11T07:23:22;49.97;;;20.53;;
73271;SDS011;61497;51.088;5.886;2023-02-11T07:25:47;50.20;;;21.33;;
73271;SDS011;61497;51.088;5.886;2023-02-11T07:28:12;45.87;;;20.00;;
73271;SDS011;61497;51.088;5.886;2023-02-11T07:30:37;51.23;;;19.17;;
73271;SDS011;61497;51.088;5.886;2023-02-11T07:33:02;52.83;;;20.83;;
73271;SDS011;61497;51.088;5.886;2023-02-11T07:35:28;46.53;;;21.43;;
73271;SDS011;61497;51.088;5.886;2023-02-11T07:37:53;48.83;;;21.33;;
73271;SDS011;61497;51.088;5.886;2023-02-11T07:40:18;48.00;;;20.63;;
73271;SDS011;61497;51.088;5.886;2023-02-11T07:42:43;47.77;;;20.40;;
73271;SDS011;61497;51.088;5.886;2023-02-11T07:45:08;46.90;;;21.40;;
73271;SDS011;61497;51.088;5.886;2023-02-11T07:47:34;54.83;;;21.43;;
73271;SDS011;61497;51.088;5.886;2023-02-11T07:49:59;53.83;;;22.10;;
73271;SDS011;61497;51.088;5.886;2023-02-11T07:52:24;54.23;;;20.20;;
73271;SDS011;61497;51.088;5.886;2023-02-11T07:54:52;55.35;;;21.80;;
73271;SDS011;61497;51.088;5.886;2023-02-11T07:57:18;52.50;;;22.03;;
73271;SDS011;61497;51.088;5.886;2023-02-11T07:59:43;55.83;;;21.80;;
73271;SDS011;61497;51.088;5.886;2023-02-11T08:02:08;52.37;;;22.77;;
73271;SDS011;61497;51.088;5.886;2023-02-11T08:04:33;52.00;;;22.07;;
73271;SDS011;61497;51.088;5.886;2023-02-11T08:06:59;57.83;;;21.70;;
73271;SDS011;61497;51.088;5.886;2023-02-11T08:09:24;54.40;;;23.13;;
73271;SDS011;61497;51.088;5.886;2023-02-11T08:11:49;51.90;;;21.83;;
73271;SDS011;61497;51.088;5.886;2023-02-11T08:14:14;56.03;;;23.50;;
73271;SDS011;61497;51.088;5.886;2023-02-11T08:16:39;49.83;;;20.83;;
73271;SDS011;61497;51.088;5.886;2023-02-11T08:19:06;55.17;;;22.10;;
73271;SDS011;61497;51.088;5.886;2023-02-11T08:21:31;57.00;;;23.50;;
73271;SDS011;61497;51.088;5.886;2023-02-11T08:23:57;51.23;;;22.23;;
73271;SDS011;61497;51.088;5.886;2023-02-11T08:26:23;53.87;;;22.23;;
73271;SDS011;61497;51.088;5.886;2023-02-11T08:28:49;56.63;;;23.08;;
73271;SDS011;61497;51.088;5.886;2023-02-11T08:31:18;53.15;;;21.40;;
73271;SDS011;61497;51.088;5.886;2023-02-11T08:33:44;58.67;;;24.33;;
73271;SDS011;61497;51.088;5.886;2023-02-11T08:36:10;56.60;;;23.13;;
73271;SDS011;61497;51.088;5.886;2023-02-11T08:38:36;60.22;;;22.58;;
73271;SDS011;61497;51.088;5.886;2023-02-11T08:41:01;55.33;;;24.00;;
73271;SDS011;61497;51.088;5.886;2023-02-11T08:43:26;57.97;;;23.63;;
73271;SDS011;61497;51.088;5.886;2023-02-11T08:45:52;58.47;;;24.30;;
73271;SDS011;61497;51.088;5.886;2023-02-11T08:48:17;62.60;;;24.37;;
73271;SDS011;61497;51.088;5.886;2023-02-11T08:50:42;60.07;;;23.60;;
73271;SDS011;61497;51.088;5.886;2023-02-11T08:53:07;61.43;;;22.93;;
73271;SDS011;61497;51.088;5.886;2023-02-11T08:55:35;57.83;;;23.83;;
73271;SDS011;61497;51.088;5.886;2023-02-11T08:58:00;57.22;;;23.25;;
73271;SDS011;61497;51.088;5.886;2023-02-11T09:00:29;65.10;;;23.77;;
73271;SDS011;61497;51.088;5.886;2023-02-11T09:02:54;57.42;;;24.23;;
73271;SDS011;61497;51.088;5.886;2023-02-11T09:05:19;61.97;;;23.70;;
73271;SDS011;61497;51.088;5.886;2023-02-11T09:07:45;57.85;;;22.75;;
73271;SDS011;61497;51.088;5.886;2023-02-11T09:10:10;56.73;;;23.57;;
73271;SDS011;61497;51.088;5.886;2023-02-11T09:12:36;59.90;;;24.27;;
73271;SDS011;61497;51.088;5.886;2023-02-11T09:15:01;62.77;;;24.37;;
73271;SDS011;61497;51.088;5.886;2023-02-11T09:17:26;59.87;;;23.97;;
73271;SDS011;61497;51.088;5.886;2023-02-11T09:19:51;58.50;;;24.30;;
73271;SDS011;61497;51.088;5.886;2023-02-11T09:22:16;67.07;;;23.77;;
73271;SDS011;61497;51.088;5.886;2023-02-11T09:24:42;63.70;;;23.33;;
73271;SDS011;61497;51.088;5.886;2023-02-11T09:27:07;60.50;;;23.97;;
73271;SDS011;61497;51.088;5.886;2023-02-11T09:29:32;59.57;;;24.07;;
73271;SDS011;61497;51.088;5.886;2023-02-11T09:31:57;61.67;;;25.17;;
73271;SDS011;61497;51.088;5.886;2023-02-11T09:34:22;63.77;;;24.13;;
73271;SDS011;61497;51.088;5.886;2023-02-11T09:36:48;63.53;;;24.20;;
73271;SDS011;61497;51.088;5.886;2023-02-11T09:39:15;59.20;;;24.47;;
73271;SDS011;61497;51.088;5.886;2023-02-11T09:41:53;67.45;;;24.70;;
73271;SDS011;61497;51.088;5.886;2023-02-11T09:44:21;57.05;;;24.77;;
73271;SDS011;61497;51.088;5.886;2023-02-11T09:46:50;71.30;;;25.13;;
73271;SDS011;61497;51.088;5.886;2023-02-11T09:49:18;60.50;;;23.23;;
73271;SDS011;61497;51.088;5.886;2023-02-11T09:51:49;60.95;;;24.20;;
73271;SDS011;61497;51.088;5.886;2023-02-11T09:57:03;59.83;;;24.60;;
73271;SDS011;61497;51.088;5.886;2023-02-11T09:59:30;62.40;;;24.00;;
73271;SDS011;61497;51.088;5.886;2023-02-11T10:09:39;64.47;;;24.27;;
73271;SDS011;61497;51.088;5.886;2023-02-11T10:22:48;60.40;;;24.67;;
73271;SDS011;61497;51.088;5.886;2023-02-11T10:25:55;64.57;;;24.38;;
73271;SDS011;61497;51.088;5.886;2023-02-11T10:28:09;61.30;;;23.88;;
73271;SDS011;61497;51.088;5.886;2023-02-11T10:30:42;65.90;;;23.73;;
73271;SDS011;61497;51.088;5.886;2023-02-11T10:33:11;62.05;;;23.17;;
73271;SDS011;61497;51.088;5.886;2023-02-11T10:35:39;59.25;;;23.60;;
73271;SDS011;61497;51.088;5.886;2023-02-11T10:38:07;61.85;;;23.92;;
73271;SDS011;61497;51.088;5.886;2023-02-11T10:40:32;57.60;;;24.90;;
73271;SDS011;61497;51.088;5.886;2023-02-11T10:42:58;62.03;;;23.83;;
73271;SDS011;61497;51.088;5.886;2023-02-11T10:45:35;60.85;;;24.55;;
73271;SDS011;61497;51.088;5.886;2023-02-11T10:48:05;61.73;;;23.70;;
73271;SDS011;61497;51.088;5.886;2023-02-11T10:50:49;56.88;;;24.02;;
73271;SDS011;61497;51.088;5.886;2023-02-11T10:53:16;59.77;;;23.37;;
73271;SDS011;61497;51.088;5.886;2023-02-11T10:55:53;62.88;;;24.83;;
73271;SDS011;61497;51.088;5.886;2023-02-11T10:58:23;57.45;;;22.73;;
73271;SDS011;61497;51.088;5.886;2023-02-11T11:00:50;59.92;;;23.50;;
73271;SDS011;61497;51.088;5.886;2023-02-11T11:03:17;57.80;;;23.80;;
73271;SDS011;61497;51.088;5.886;2023-02-11T11:05:47;56.38;;;23.25;;
73271;SDS011;61497;51.088;5.886;2023-02-11T11:08:13;62.20;;;25.40;;
73271;SDS011;61497;51.088;5.886;2023-02-11T11:10:40;62.30;;;24.02;;
73271;SDS011;61497;51.088;5.886;2023-02-11T11:13:28;60.85;;;25.42;;
73271;SDS011;61497;51.088;5.886;2023-02-11T11:16:07;54.93;;;24.03;;
73271;SDS011;61497;51.088;5.886;2023-02-11T11:18:32;62.72;;;24.90;;
73271;SDS011;61497;51.088;5.886;2023-02-11T11:21:04;64.60;;;24.17;;
73271;SDS011;61497;51.088;5.886;2023-02-11T11:23:31;64.38;;;25.20;;
73271;SDS011;61497;51.088;5.886;2023-02-11T11:26:03;60.33;;;25.27;;
73271;SDS011;61497;51.088;5.886;2023-02-11T11:28:30;61.40;;;25.60;;
73271;SDS011;61497;51.088;5.886;2023-02-11T11:30:55;63.03;;;26.37;;
73271;SDS011;61497;51.088;5.886;2023-02-11T11:33:26;62.30;;;25.30;;
73271;SDS011;61497;51.088;5.886;2023-02-11T11:35:59;59.53;;;25.45;;
73271;SDS011;61497;51.088;5.886;2023-02-11T11:38:26;64.35;;;25.60;;
73271;SDS011;61497;51.088;5.886;2023-02-11T11:43:36;60.70;;;25.40;;
73271;SDS011;61497;51.088;5.886;2023-02-11T11:46:01;61.72;;;25.52;;
73271;SDS011;61497;51.088;5.886;2023-02-11T11:48:30;63.15;;;25.90;;
73271;SDS011;61497;51.088;5.886;2023-02-11T11:51:09;62.83;;;25.97;;
73271;SDS011;61497;51.088;5.886;2023-02-11T11:53:36;67.00;;;26.63;;
73271;SDS011;61497;51.088;5.886;2023-02-11T11:56:16;64.57;;;26.25;;
73271;SDS011;61497;51.088;5.886;2023-02-11T11:58:42;63.53;;;26.00;;
73271;SDS011;61497;51.088;5.886;2023-02-11T12:01:54;64.80;;;25.57;;
73271;SDS011;61497;51.088;5.886;2023-02-11T12:06:40;70.30;;;26.85;;
73271;SDS011;61497;51.088;5.886;2023-02-11T12:14:22;65.85;;;24.65;;
73271;SDS011;61497;51.088;5.886;2023-02-11T12:17:02;69.13;;;27.15;;
73271;SDS011;61497;51.088;5.886;2023-02-11T12:27:02;67.73;;;26.47;;
73271;SDS011;61497;51.088;5.886;2023-02-11T12:29:30;70.43;;;27.00;;
73271;SDS011;61497;51.088;5.886;2023-02-11T12:32:16;66.82;;;28.33;;
73271;SDS011;61497;51.088;5.886;2023-02-11T12:37:18;76.43;;;26.73;;
73271;SDS011;61497;51.088;5.886;2023-02-11T12:39:49;69.70;;;27.48;;
73271;SDS011;61497;51.088;5.886;2023-02-11T12:42:21;63.57;;;26.60;;
73271;SDS011;61497;51.088;5.886;2023-02-11T12:53:34;67.50;;;26.50;;
73271;SDS011;61497;51.088;5.886;2023-02-11T12:55:34;63.75;;;27.15;;
73271;SDS011;61497;51.088;5.886;2023-02-11T12:58:03;69.68;;;26.85;;
73271;SDS011;61497;51.088;5.886;2023-02-11T13:00:37;69.53;;;28.03;;
73271;SDS011;61497;51.088;5.886;2023-02-11T13:03:24;65.88;;;27.35;;
73271;SDS011;61497;51.088;5.886;2023-02-11T13:05:59;68.88;;;27.98;;
73271;SDS011;61497;51.088;5.886;2023-02-11T13:08:30;65.50;;;27.67;;
73271;SDS011;61497;51.088;5.886;2023-02-11T13:11:01;64.13;;;28.58;;
73271;SDS011;61497;51.088;5.886;2023-02-11T13:13:37;64.97;;;26.10;;
73271;SDS011;61497;51.088;5.886;2023-02-11T13:16:04;65.55;;;26.63;;
73271;SDS011;61497;51.088;5.886;2023-02-11T13:26:18;62.73;;;27.13;;
73271;SDS011;61497;51.088;5.886;2023-02-11T13:28:53;62.67;;;26.88;;
73271;SDS011;61497;51.088;5.886;2023-02-11T13:31:20;68.70;;;28.00;;
73271;SDS011;61497;51.088;5.886;2023-02-11T13:33:45;64.00;;;27.97;;
73271;SDS011;61497;51.088;5.886;2023-02-11T13:36:20;61.88;;;26.75;;
73271;SDS011;61497;51.088;5.886;2023-02-11T13:38:53;63.28;;;27.75;;
73271;SDS011;61497;51.088;5.886;2023-02-11T13:41:34;64.90;;;25.93;;
73271;SDS011;61497;51.088;5.886;2023-02-11T13:44:05;66.80;;;26.48;;
73271;SDS011;61497;51.088;5.886;2023-02-11T13:46:50;58.92;;;25.23;;
73271;SDS011;61497;51.088;5.886;2023-02-11T13:51:52;64.78;;;27.27;;
73271;SDS011;61497;51.088;5.886;2023-02-11T13:54:22;66.23;;;28.93;;
73271;SDS011;61497;51.088;5.886;2023-02-11T13:57:14;63.08;;;27.45;;
73271;SDS011;61497;51.088;5.886;2023-02-11T14:02:19;69.40;;;29.10;;
73271;SDS011;61497;51.088;5.886;2023-02-11T14:08:10;59.53;;;25.40;;
73271;SDS011;61497;51.088;5.886;2023-02-11T14:10:55;62.78;;;26.40;;
73271;SDS011;61497;51.088;5.886;2023-02-11T14:13:25;67.43;;;27.30;;
73271;SDS011;61497;51.088;5.886;2023-02-11T14:16:07;66.65;;;26.45;;
73271;SDS011;61497;51.088;5.886;2023-02-11T14:23:41;62.85;;;27.77;;
73271;SDS011;61497;51.088;5.886;2023-02-11T14:28:53;65.50;;;26.70;;
73271;SDS011;61497;51.088;5.886;2023-02-11T14:34:07;66.27;;;27.67;;
73271;SDS011;61497;51.088;5.886;2023-02-11T14:36:56;63.85;;;26.25;;
73271;SDS011;61497;51.088;5.886;2023-02-11T14:42:09;61.67;;;27.65;;
73271;SDS011;61497;51.088;5.886;2023-02-11T14:44:39;63.70;;;27.55;;
73271;SDS011;61497;51.088;5.886;2023-02-11T14:47:05;62.03;;;25.83;;
73271;SDS011;61497;51.088;5.886;2023-02-11T14:49:32;64.97;;;28.40;;
73271;SDS011;61497;51.088;5.886;2023-02-11T14:51:59;59.88;;;26.77;;
73271;SDS011;61497;51.088;5.886;2023-02-11T14:54:27;59.78;;;26.63;;
73271;SDS011;61497;51.088;5.886;2023-02-11T14:57:06;72.13;;;28.93;;
73271;SDS011;61497;51.088;5.886;2023-02-11T14:59:31;64.70;;;27.38;;
73271;SDS011;61497;51.088;5.886;2023-02-11T15:01:56;64.73;;;28.73;;
73271;SDS011;61497;51.088;5.886;2023-02-11T15:06:47;68.13;;;28.90;;
73271;SDS011;61497;51.088;5.886;2023-02-11T15:09:16;68.63;;;27.70;;
73271;SDS011;61497;51.088;5.886;2023-02-11T15:11:42;66.28;;;28.10;;
73271;SDS011;61497;51.088;5.886;2023-02-11T15:14:22;66.57;;;28.17;;
73271;SDS011;61497;51.088;5.886;2023-02-11T15:16:47;67.40;;;28.08;;
73271;SDS011;61497;51.088;5.886;2023-02-11T15:19:36;71.43;;;29.38;;
73271;SDS011;61497;51.088;5.886;2023-02-11T15:22:00;66.18;;;27.67;;
73271;SDS011;61497;51.088;5.886;2023-02-11T15:24:27;66.07;;;28.88;;
73271;SDS011;61497;51.088;5.886;2023-02-11T15:29:32;66.95;;;25.55;;
73271;SDS011;61497;51.088;5.886;2023-02-11T15:32:01;70.70;;;29.08;;
73271;SDS011;61497;51.088;5.886;2023-02-11T15:34:27;67.25;;;29.35;;
73271;SDS011;61497;51.088;5.886;2023-02-11T15:36:52;70.80;;;28.40;;
73271;SDS011;61497;51.088;5.886;2023-02-11T15:39:31;70.57;;;29.73;;
73271;SDS011;61497;51.088;5.886;2023-02-11T15:44:41;68.95;;;29.00;;
73271;SDS011;61497;51.088;5.886;2023-02-11T15:47:11;67.57;;;27.70;;
73271;SDS011;61497;51.088;5.886;2023-02-11T15:49:36;71.85;;;29.02;;
73271;SDS011;61497;51.088;5.886;2023-02-11T15:52:02;71.93;;;29.80;;
73271;SDS011;61497;51.088;5.886;2023-02-11T15:54:27;71.30;;;29.15;;
73271;SDS011;61497;51.088;5.886;2023-02-11T15:56:59;71.57;;;28.93;;
73271;SDS011;61497;51.088;5.886;2023-02-11T15:59:28;70.63;;;28.83;;
73271;SDS011;61497;51.088;5.886;2023-02-11T16:02:04;75.40;;;31.05;;
73271;SDS011;61497;51.088;5.886;2023-02-11T16:04:30;70.22;;;28.73;;
73271;SDS011;61497;51.088;5.886;2023-02-11T16:06:55;67.00;;;27.23;;
73271;SDS011;61497;51.088;5.886;2023-02-11T16:09:23;70.43;;;28.57;;
73271;SDS011;61497;51.088;5.886;2023-02-11T16:14:55;68.40;;;28.93;;
73271;SDS011;61497;51.088;5.886;2023-02-11T16:17:21;72.90;;;28.45;;
73271;SDS011;61497;51.088;5.886;2023-02-11T16:19:48;70.17;;;27.30;;
73271;SDS011;61497;51.088;5.886;2023-02-11T16:22:24;68.72;;;27.73;;
73271;SDS011;61497;51.088;5.886;2023-02-11T16:24:51;73.05;;;27.27;;
73271;SDS011;61497;51.088;5.886;2023-02-11T16:27:20;75.18;;;28.90;;